Time;durP1;ratioP1;P1;durP2;ratioP2;P2;SDS_P1;SDS_P2;PMS_P1;PMS_P2;Temp;Humidity;BMP_temperature;BMP_pressure;BME280_temperature;BME280_humidity;BME280_pressure;Samples;Min_cycle;Max_cycle;Signal;HPM_P1;HPM_P2
2022/12/30 00:00:48;;;;;;;;;;;21.90;99.90;;;;;;5011745;28;19917;-65
2022/12/30 00:03:14;;;;;;;;;;;22.00;99.90;;;;;;5013132;28;19913;-75
2022/12/30 00:05:41;;;;;;;;;;;22.00;99.90;;;;;;5012567;28;20047;-68
2022/12/30 00:08:45;;;;;;;;;;;22.00;99.90;;;;;;5013000;28;19921;-67
2022/12/30 00:10:54;;;;;;;;;;;22.00;99.90;;;;;;4993287;28;20016;-67
2022/12/30 00:35:20;;;;;;;;;;;22.60;99.90;;;;;;5007489;28;20390;-79
2022/12/30 00:37:47;;;;;;;;;;;22.70;99.90;;;;;;5010769;28;20007;-79
2022/12/30 00:40:14;;;;;;;;;;;22.80;99.90;;;;;;5011774;28;19914;-73
2022/12/30 00:45:26;;;;;;;;;;;22.80;99.90;;;;;;5012301;28;20009;-66
2022/12/30 00:47:53;;;;;;;;;;;22.80;99.90;;;;;;5011332;28;20371;-74
2022/12/30 00:58:34;;;;;;;;;;;22.80;99.90;;;;;;5011941;28;19960;-73
2022/12/30 01:01:00;;;;;;;;;;;22.80;99.90;;;;;;5011763;28;19914;-68
2022/12/30 01:03:27;;;;;;;;;;;23.00;99.90;;;;;;5011558;28;19914;-65
2022/12/30 01:05:54;;;;;;;;;;;23.30;99.90;;;;;;5010070;28;19921;-65
2022/12/30 01:08:20;;;;;;;;;;;23.50;99.90;;;;;;5017111;28;19975;-65
2022/12/30 01:10:47;;;;;;;;;;;23.50;99.90;;;;;;5011371;28;19913;-66
2022/12/30 01:13:14;;;;;;;;;;;23.50;99.90;;;;;;5014624;28;19956;-75
2022/12/30 01:15:40;;;;;;;;;;;23.40;99.90;;;;;;5016692;28;19913;-66
2022/12/30 01:18:07;;;;;;;;;;;23.30;99.90;;;;;;5018155;28;19917;-67
2022/12/30 01:20:35;;;;;;;;;;;23.20;99.90;;;;;;5017591;28;19918;-66
2022/12/30 01:23:02;;;;;;;;;;;23.10;99.90;;;;;;5018356;28;19917;-69
2022/12/30 01:25:28;;;;;;;;;;;23.10;99.90;;;;;;5018054;28;19917;-73
2022/12/30 01:27:55;;;;;;;;;;;23.00;99.90;;;;;;5018625;28;19914;-68
2022/12/30 01:30:22;;;;;;;;;;;23.00;99.90;;;;;;5018345;28;20368;-67
2022/12/30 01:32:48;;;;;;;;;;;23.00;99.90;;;;;;5018510;28;19920;-72
2022/12/30 01:35:15;;;;;;;;;;;22.90;99.90;;;;;;5018187;28;20395;-72
2022/12/30 01:37:42;;;;;;;;;;;22.90;99.90;;;;;;5019897;28;19914;-63
2022/12/30 01:40:09;;;;;;;;;;;22.90;99.90;;;;;;5017774;28;20383;-71
2022/12/30 01:42:39;;;;;;;;;;;22.90;99.90;;;;;;5018363;28;19963;-65
2022/12/30 01:45:18;;;;;;;;;;;23.00;99.90;;;;;;5020705;28;19917;-65
2022/12/30 01:47:49;;;;;;;;;;;22.90;99.90;;;;;;5009437;28;19909;-69
2022/12/30 01:50:18;;;;;;;;;;;23.00;99.90;;;;;;4998363;28;20005;-79
2022/12/30 01:53:05;;;;;;;;;;;22.90;99.90;;;;;;5014919;28;20312;-65
2022/12/30 01:55:34;;;;;;;;;;;22.90;99.90;;;;;;5017800;28;19957;-65
2022/12/30 01:58:02;;;;;;;;;;;22.90;99.90;;;;;;5018263;28;19996;-70
2022/12/30 02:00:29;;;;;;;;;;;22.90;99.90;;;;;;5017934;28;19914;-66
2022/12/30 02:02:56;;;;;;;;;;;22.90;99.90;;;;;;5018212;28;19914;-67
2022/12/30 02:05:25;;;;;;;;;;;23.00;99.90;;;;;;5017928;28;19957;-70
2022/12/30 02:07:57;;;;;;;;;;;23.00;99.90;;;;;;5018100;28;19913;-75
2022/12/30 02:10:24;;;;;;;;;;;23.00;99.90;;;;;;5018028;28;20386;-66
2022/12/30 02:12:50;;;;;;;;;;;23.00;99.90;;;;;;5018473;28;20368;-70
2022/12/30 02:15:17;;;;;;;;;;;23.00;99.90;;;;;;5017842;28;19917;-69
2022/12/30 02:17:44;;;;;;;;;;;23.10;99.90;;;;;;5018039;28;19956;-66
2022/12/30 02:20:21;;;;;;;;;;;23.10;99.90;;;;;;5018176;28;20296;-73
2022/12/30 02:22:58;;;;;;;;;;;23.00;99.90;;;;;;5018299;28;19916;-66
2022/12/30 02:25:46;;;;;;;;;;;22.90;99.90;;;;;;5013733;28;19913;-74
2022/12/30 02:28:24;;;;;;;;;;;23.00;99.90;;;;;;5015033;28;19930;-71
2022/12/30 02:31:09;;;;;;;;;;;23.10;99.90;;;;;;5000363;28;19979;-72
2022/12/30 02:33:43;;;;;;;;;;;23.20;99.90;;;;;;5003065;28;20107;-73
2022/12/30 02:36:36;;;;;;;;;;;23.30;99.90;;;;;;4991897;28;20446;-70
2022/12/30 02:39:05;;;;;;;;;;;23.40;99.90;;;;;;5003680;28;19913;-67
2022/12/30 02:44:43;;;;;;;;;;;23.30;99.90;;;;;;4993382;28;20000;-72
2022/12/30 02:47:13;;;;;;;;;;;23.30;99.90;;;;;;5008776;28;19986;-71
2022/12/30 02:49:41;;;;;;;;;;;23.30;99.90;;;;;;4998447;28;19932;-73
2022/12/30 02:52:14;;;;;;;;;;;23.30;99.90;;;;;;5005384;28;20023;-79
2022/12/30 02:54:47;;;;;;;;;;;23.40;99.90;;;;;;5005738;28;19960;-75
2022/12/30 02:57:24;;;;;;;;;;;23.40;99.90;;;;;;5004714;28;19922;-76
2022/12/30 03:05:33;;;;;;;;;;;23.30;99.90;;;;;;5005814;28;20294;-74
2022/12/30 03:08:03;;;;;;;;;;;23.30;99.90;;;;;;5006359;28;20402;-79
2022/12/30 03:13:26;;;;;;;;;;;23.20;99.90;;;;;;5006249;28;19988;-70
2022/12/30 03:15:56;;;;;;;;;;;23.20;99.90;;;;;;5005766;28;20386;-75
2022/12/30 03:18:24;;;;;;;;;;;23.20;99.90;;;;;;5005837;28;19913;-75
2022/12/30 03:20:51;;;;;;;;;;;23.10;99.90;;;;;;5005777;28;19964;-75
2022/12/30 03:28:50;;;;;;;;;;;23.00;99.90;;;;;;5005731;28;19971;-80
2022/12/30 03:31:18;;;;;;;;;;;23.00;99.90;;;;;;5004805;28;19918;-67
2022/12/30 03:33:44;;;;;;;;;;;23.00;99.90;;;;;;5005317;28;19918;-70
2022/12/30 03:36:17;;;;;;;;;;;23.00;99.90;;;;;;5005960;28;19956;-75
2022/12/30 03:38:50;;;;;;;;;;;23.00;99.90;;;;;;5005592;28;20008;-67
2022/12/30 03:41:18;;;;;;;;;;;23.00;99.90;;;;;;5000503;28;20012;-76
2022/12/30 03:43:45;;;;;;;;;;;23.00;99.90;;;;;;5005340;28;20445;-78
2022/12/30 03:46:12;;;;;;;;;;;23.00;99.90;;;;;;5005937;28;19943;-76
2022/12/30 03:48:38;;;;;;;;;;;23.00;99.90;;;;;;5005020;28;19999;-78
2022/12/30 03:51:05;;;;;;;;;;;23.00;99.90;;;;;;5004293;28;19992;-71
2022/12/30 03:53:32;;;;;;;;;;;23.00;99.90;;;;;;5003317;28;19944;-67
2022/12/30 03:55:59;;;;;;;;;;;23.10;99.90;;;;;;5005326;28;19920;-71
2022/12/30 03:58:25;;;;;;;;;;;23.20;99.90;;;;;;5005449;28;19953;-69
2022/12/30 04:00:52;;;;;;;;;;;23.30;99.90;;;;;;5004987;28;20247;-66
2022/12/30 04:03:18;;;;;;;;;;;23.30;99.90;;;;;;5004942;28;19953;-70
2022/12/30 04:05:45;;;;;;;;;;;23.40;99.90;;;;;;5004537;28;20493;-67
2022/12/30 04:08:12;;;;;;;;;;;23.30;99.90;;;;;;5005262;28;19970;-75
2022/12/30 04:10:38;;;;;;;;;;;23.20;99.90;;;;;;5004976;28;19918;-69
2022/12/30 04:13:05;;;;;;;;;;;23.20;99.90;;;;;;5005454;28;19921;-68
2022/12/30 04:15:32;;;;;;;;;;;23.20;99.90;;;;;;5004308;28;19993;-74
2022/12/30 04:17:58;;;;;;;;;;;23.10;99.90;;;;;;5004618;28;20003;-76
2022/12/30 04:20:25;;;;;;;;;;;23.20;99.90;;;;;;5004263;28;19914;-69
2022/12/30 04:22:55;;;;;;;;;;;23.20;99.90;;;;;;5004986;28;19914;-67
2022/12/30 04:25:22;;;;;;;;;;;23.10;99.90;;;;;;5004407;28;20394;-71
2022/12/30 04:27:48;;;;;;;;;;;23.00;99.90;;;;;;5003683;28;20422;-70
2022/12/30 04:30:15;;;;;;;;;;;23.00;99.90;;;;;;5003922;28;19917;-71
2022/12/30 04:32:42;;;;;;;;;;;23.00;99.90;;;;;;5004131;28;20305;-73
2022/12/30 04:35:08;;;;;;;;;;;22.90;99.90;;;;;;5004017;28;19937;-76
2022/12/30 04:37:35;;;;;;;;;;;22.90;99.90;;;;;;5004417;28;19960;-73
2022/12/30 04:40:02;;;;;;;;;;;23.00;99.90;;;;;;5004403;28;20023;-72
2022/12/30 04:42:28;;;;;;;;;;;23.00;99.90;;;;;;5004179;28;19953;-70
2022/12/30 04:44:55;;;;;;;;;;;23.00;99.90;;;;;;5004439;28;19917;-70
2022/12/30 04:47:22;;;;;;;;;;;23.20;99.90;;;;;;5004080;28;19935;-71
2022/12/30 04:49:48;;;;;;;;;;;23.50;99.90;;;;;;5004179;28;19944;-67
2022/12/30 04:52:15;;;;;;;;;;;23.50;99.90;;;;;;5004576;28;20031;-68
2022/12/30 04:54:41;;;;;;;;;;;23.50;99.90;;;;;;5003140;28;19940;-72
2022/12/30 04:57:08;;;;;;;;;;;23.50;99.90;;;;;;5000137;28;20343;-76
2022/12/30 04:59:35;;;;;;;;;;;23.40;99.90;;;;;;5003740;28;19921;-65
2022/12/30 05:02:01;;;;;;;;;;;23.30;99.90;;;;;;5003222;28;19924;-71
2022/12/30 05:04:28;;;;;;;;;;;23.30;99.90;;;;;;5003535;28;20067;-66
2022/12/30 05:06:55;;;;;;;;;;;23.30;99.90;;;;;;5001126;28;19943;-68
2022/12/30 05:09:21;;;;;;;;;;;23.40;99.90;;;;;;5003862;28;20323;-69
2022/12/30 05:11:48;;;;;;;;;;;23.50;99.90;;;;;;5002475;28;19936;-75
2022/12/30 05:14:15;;;;;;;;;;;23.40;99.90;;;;;;5003395;28;20513;-71
2022/12/30 05:16:41;;;;;;;;;;;23.30;99.90;;;;;;5004244;28;19913;-68
2022/12/30 05:19:08;;;;;;;;;;;23.40;99.90;;;;;;5003483;28;19913;-68
2022/12/30 05:21:35;;;;;;;;;;;23.50;99.90;;;;;;5001569;28;20016;-65
2022/12/30 05:26:46;;;;;;;;;;;23.30;99.90;;;;;;5004461;28;19924;-70
2022/12/30 05:29:13;;;;;;;;;;;23.20;99.90;;;;;;5002890;28;20372;-75
2022/12/30 05:31:39;;;;;;;;;;;23.30;99.90;;;;;;5003791;28;19932;-67
2022/12/30 05:34:06;;;;;;;;;;;23.20;99.90;;;;;;5003174;28;19947;-65
2022/12/30 05:36:33;;;;;;;;;;;23.20;99.90;;;;;;5003497;28;19913;-69
2022/12/30 05:38:59;;;;;;;;;;;23.20;99.90;;;;;;5003413;28;19917;-69
2022/12/30 05:41:26;;;;;;;;;;;23.20;99.90;;;;;;5003023;28;19922;-72
2022/12/30 05:43:53;;;;;;;;;;;23.20;99.90;;;;;;5002540;28;19922;-68
2022/12/30 05:46:21;;;;;;;;;;;23.20;99.90;;;;;;4996975;28;19924;-70
2022/12/30 05:48:48;;;;;;;;;;;23.30;99.90;;;;;;5003008;28;19929;-71
2022/12/30 05:51:14;;;;;;;;;;;23.30;99.90;;;;;;4997438;28;20376;-74
2022/12/30 05:53:41;;;;;;;;;;;23.30;99.90;;;;;;5015987;28;20387;-74
2022/12/30 05:56:08;;;;;;;;;;;23.30;99.90;;;;;;5003683;28;19913;-71
2022/12/30 05:58:34;;;;;;;;;;;23.20;99.90;;;;;;5001732;28;20396;-71
2022/12/30 06:01:02;;;;;;;;;;;23.20;99.90;;;;;;5006646;28;19964;-68
2022/12/30 06:03:31;;;;;;;;;;;23.10;99.90;;;;;;5006490;28;20695;-70
2022/12/30 06:05:58;;;;;;;;;;;23.20;99.90;;;;;;5006757;28;19940;-77
2022/12/30 06:08:25;;;;;;;;;;;23.20;99.90;;;;;;5006895;28;19922;-68
2022/12/30 06:10:52;;;;;;;;;;;23.30;99.90;;;;;;5006606;28;19921;-77
2022/12/30 06:13:19;;;;;;;;;;;23.20;99.90;;;;;;5006241;28;19917;-78
2022/12/30 06:15:45;;;;;;;;;;;23.20;99.90;;;;;;5007298;28;19913;-72
2022/12/30 06:18:12;;;;;;;;;;;23.30;99.90;;;;;;5006652;28;19917;-73
2022/12/30 06:20:39;;;;;;;;;;;23.10;99.90;;;;;;5005293;28;19921;-71
2022/12/30 06:23:06;;;;;;;;;;;23.00;99.90;;;;;;5007157;28;20058;-76
2022/12/30 06:25:33;;;;;;;;;;;23.00;99.90;;;;;;5006363;28;20131;-71
2022/12/30 06:27:59;;;;;;;;;;;23.00;99.90;;;;;;5006414;28;19952;-75
2022/12/30 06:30:26;;;;;;;;;;;22.90;99.90;;;;;;5006203;28;20056;-72
2022/12/30 06:32:55;;;;;;;;;;;22.70;99.90;;;;;;5006204;28;19917;-75
2022/12/30 06:35:23;;;;;;;;;;;22.70;99.90;;;;;;4992530;28;20384;-78
2022/12/30 06:37:49;;;;;;;;;;;22.60;99.90;;;;;;4996672;28;19918;-73
2022/12/30 06:40:16;;;;;;;;;;;22.60;99.90;;;;;;5006333;28;19983;-68
2022/12/30 06:42:44;;;;;;;;;;;22.60;99.90;;;;;;5004413;28;19918;-74
2022/12/30 06:45:11;;;;;;;;;;;22.70;99.90;;;;;;5006428;28;20431;-75
2022/12/30 06:47:38;;;;;;;;;;;22.80;99.90;;;;;;5006474;28;20476;-75
2022/12/30 06:50:05;;;;;;;;;;;22.80;99.90;;;;;;5006341;28;19997;-68
2022/12/30 06:52:31;;;;;;;;;;;22.70;99.90;;;;;;5006021;28;19951;-74
2022/12/30 06:54:58;;;;;;;;;;;22.60;99.90;;;;;;5004096;28;19921;-79
2022/12/30 06:57:28;;;;;;;;;;;22.60;99.90;;;;;;5004506;28;20224;-76
2022/12/30 06:59:55;;;;;;;;;;;22.50;99.90;;;;;;5004861;28;19928;-75
2022/12/30 07:02:22;;;;;;;;;;;22.60;99.90;;;;;;5005216;28;20268;-75
2022/12/30 07:04:49;;;;;;;;;;;22.60;99.90;;;;;;5005489;28;19979;-74
2022/12/30 07:07:15;;;;;;;;;;;22.60;99.90;;;;;;5010497;28;19917;-71
2022/12/30 07:09:42;;;;;;;;;;;22.60;99.90;;;;;;5015530;28;20383;-67
2022/12/30 07:12:09;;;;;;;;;;;22.60;99.90;;;;;;5017514;28;20225;-70
2022/12/30 07:14:35;;;;;;;;;;;22.60;99.90;;;;;;5022411;28;19952;-72
2022/12/30 07:17:02;;;;;;;;;;;22.60;99.90;;;;;;5016989;28;20421;-72
2022/12/30 07:19:29;;;;;;;;;;;22.60;99.90;;;;;;5013247;28;19943;-70
2022/12/30 07:21:55;;;;;;;;;;;22.60;99.90;;;;;;5014612;28;20629;-76
2022/12/30 07:24:22;;;;;;;;;;;22.50;99.90;;;;;;5006825;28;20413;-79
2022/12/30 07:26:49;;;;;;;;;;;22.60;99.90;;;;;;5006108;28;20387;-79
2022/12/30 07:29:16;;;;;;;;;;;22.60;99.90;;;;;;5001682;28;19929;-70
2022/12/30 07:31:43;;;;;;;;;;;22.60;99.90;;;;;;5010789;28;19921;-74
2022/12/30 07:34:09;;;;;;;;;;;22.60;99.90;;;;;;5010425;28;19929;-67
2022/12/30 07:36:36;;;;;;;;;;;22.70;99.90;;;;;;4995024;28;19925;-79
2022/12/30 07:39:02;;;;;;;;;;;22.60;99.90;;;;;;5003880;28;19917;-71
2022/12/30 07:41:29;;;;;;;;;;;22.50;99.90;;;;;;5003457;28;19917;-68
2022/12/30 07:43:56;;;;;;;;;;;22.50;99.90;;;;;;5002895;28;19917;-77
2022/12/30 07:46:23;;;;;;;;;;;22.50;99.90;;;;;;5004207;28;20020;-74
2022/12/30 07:48:49;;;;;;;;;;;22.40;99.90;;;;;;5004193;28;19921;-72
2022/12/30 07:51:17;;;;;;;;;;;22.40;99.90;;;;;;5004583;28;20149;-73
2022/12/30 07:53:44;;;;;;;;;;;22.40;99.90;;;;;;5004246;28;19920;-74
2022/12/30 07:56:12;;;;;;;;;;;22.40;99.90;;;;;;5004859;28;19917;-69
2022/12/30 07:58:39;;;;;;;;;;;22.40;99.90;;;;;;5004856;28;19921;-72
2022/12/30 08:01:14;;;;;;;;;;;22.30;99.90;;;;;;5004557;28;19925;-76
2022/12/30 08:03:41;;;;;;;;;;;22.30;99.90;;;;;;5004807;28;20014;-78
2022/12/30 08:06:09;;;;;;;;;;;22.30;99.90;;;;;;5004836;28;20253;-79
2022/12/30 08:08:36;;;;;;;;;;;22.30;99.90;;;;;;5004288;28;19917;-79
2022/12/30 08:11:03;;;;;;;;;;;22.30;99.90;;;;;;5005264;28;19918;-79
2022/12/30 08:13:31;;;;;;;;;;;22.30;99.90;;;;;;5006298;28;19953;-80
2022/12/30 08:15:57;;;;;;;;;;;22.20;99.90;;;;;;5006040;28;19995;-75
2022/12/30 08:18:24;;;;;;;;;;;22.20;99.90;;;;;;5006078;28;19913;-80
2022/12/30 08:20:51;;;;;;;;;;;22.20;99.90;;;;;;5006355;28;19921;-79
2022/12/30 08:23:17;;;;;;;;;;;22.10;99.90;;;;;;5005635;28;20350;-78
2022/12/30 08:25:44;;;;;;;;;;;22.20;99.90;;;;;;5006622;28;19964;-79
2022/12/30 08:28:11;;;;;;;;;;;22.10;99.90;;;;;;5005510;28;19922;-73
2022/12/30 08:30:38;;;;;;;;;;;22.10;99.90;;;;;;5001738;28;19929;-79
2022/12/30 08:33:05;;;;;;;;;;;22.10;99.90;;;;;;5006140;28;20287;-78
2022/12/30 08:35:32;;;;;;;;;;;22.00;99.90;;;;;;5005643;28;20340;-74
2022/12/30 08:37:58;;;;;;;;;;;22.00;99.90;;;;;;5005462;28;19924;-77
2022/12/30 08:40:25;;;;;;;;;;;22.00;99.90;;;;;;5005277;28;19929;-73
2022/12/30 08:42:52;;;;;;;;;;;22.00;99.90;;;;;;5006218;28;19917;-78
2022/12/30 08:45:18;;;;;;;;;;;22.10;99.90;;;;;;5005293;28;20382;-72
2022/12/30 08:47:45;;;;;;;;;;;22.00;99.90;;;;;;5005451;28;19913;-78
2022/12/30 08:50:12;;;;;;;;;;;22.00;99.90;;;;;;5005373;28;19922;-79
2022/12/30 08:52:38;;;;;;;;;;;22.00;99.90;;;;;;5007504;28;20007;-78
2022/12/30 08:55:05;;;;;;;;;;;22.00;99.90;;;;;;5005731;28;19921;-79
2022/12/30 08:57:32;;;;;;;;;;;21.90;99.90;;;;;;5004789;28;19917;-79
2022/12/30 08:59:58;;;;;;;;;;;21.90;99.90;;;;;;5004844;28;20479;-78
2022/12/30 09:02:25;;;;;;;;;;;21.80;99.90;;;;;;5005217;28;19918;-77
2022/12/30 09:04:51;;;;;;;;;;;21.80;99.90;;;;;;5005214;28;19917;-77
2022/12/30 09:07:18;;;;;;;;;;;21.80;99.90;;;;;;5004698;28;19914;-76
2022/12/30 09:09:45;;;;;;;;;;;21.80;99.90;;;;;;5005288;28;19926;-78
2022/12/30 09:12:11;;;;;;;;;;;21.80;99.90;;;;;;5005626;28;19967;-78
2022/12/30 09:14:38;;;;;;;;;;;21.80;99.90;;;;;;5005242;28;20260;-78
2022/12/30 09:17:05;;;;;;;;;;;21.80;99.90;;;;;;5005174;28;19921;-79
2022/12/30 09:19:31;;;;;;;;;;;21.80;99.90;;;;;;5004788;28;19920;-75
2022/12/30 09:21:58;;;;;;;;;;;21.70;99.90;;;;;;5005798;28;19914;-75
2022/12/30 09:24:24;;;;;;;;;;;21.70;99.90;;;;;;5004984;28;20360;-78
2022/12/30 09:26:51;;;;;;;;;;;21.70;99.90;;;;;;5004821;28;19925;-79
2022/12/30 09:29:18;;;;;;;;;;;21.60;99.90;;;;;;5003983;28;19933;-70
2022/12/30 09:31:45;;;;;;;;;;;21.60;99.90;;;;;;5004722;28;19957;-79
2022/12/30 09:34:12;;;;;;;;;;;21.60;99.90;;;;;;5006872;28;19928;-79
2022/12/30 09:36:38;;;;;;;;;;;21.50;99.90;;;;;;5008592;28;19914;-78
2022/12/30 09:39:05;;;;;;;;;;;21.50;99.90;;;;;;5008334;28;19914;-76
2022/12/30 09:44:24;;;;;;;;;;;21.50;99.90;;;;;;5008808;28;19999;-76
2022/12/30 09:47:05;;;;;;;;;;;21.50;99.90;;;;;;5009013;28;20410;-79
2022/12/30 09:49:38;;;;;;;;;;;21.50;99.90;;;;;;5008069;28;20020;-73
2022/12/30 09:52:07;;;;;;;;;;;21.50;99.90;;;;;;5008587;28;19944;-79
2022/12/30 09:54:34;;;;;;;;;;;21.50;99.90;;;;;;5007062;28;19929;-72
2022/12/30 09:57:49;;;;;;;;;;;21.50;99.90;;;;;;5009424;28;19984;-79
2022/12/30 09:59:59;;;;;;;;;;;21.50;99.90;;;;;;4997641;28;20312;-71
2022/12/30 10:02:27;;;;;;;;;;;21.50;99.90;;;;;;5008662;28;20414;-79
2022/12/30 10:04:59;;;;;;;;;;;21.50;99.90;;;;;;5008957;28;19914;-75
2022/12/30 10:07:28;;;;;;;;;;;21.50;99.90;;;;;;5007960;28;19944;-72
2022/12/30 10:09:55;;;;;;;;;;;21.40;99.90;;;;;;5007842;28;19929;-73
2022/12/30 10:12:27;;;;;;;;;;;21.40;99.90;;;;;;5008831;28;21418;-77
2022/12/30 10:15:06;;;;;;;;;;;21.40;99.90;;;;;;5008671;28;19967;-77
2022/12/30 10:17:51;;;;;;;;;;;21.40;99.90;;;;;;5008379;28;20420;-71
2022/12/30 10:20:23;;;;;;;;;;;21.40;99.90;;;;;;5007901;28;19945;-79
2022/12/30 10:22:56;;;;;;;;;;;21.40;99.90;;;;;;5008027;28;19917;-79
2022/12/30 10:25:30;;;;;;;;;;;21.30;99.90;;;;;;5007850;28;19924;-80
2022/12/30 10:27:57;;;;;;;;;;;21.30;99.90;;;;;;5008366;28;20056;-73
2022/12/30 10:30:29;;;;;;;;;;;21.30;99.90;;;;;;5007007;28;19947;-73
2022/12/30 10:33:15;;;;;;;;;;;21.30;99.90;;;;;;5007731;28;19917;-69
2022/12/30 10:35:42;;;;;;;;;;;21.30;99.90;;;;;;5003916;28;19932;-69
2022/12/30 10:38:09;;;;;;;;;;;21.30;99.90;;;;;;5007202;28;19917;-73
2022/12/30 10:40:59;;;;;;;;;;;21.30;99.90;;;;;;5007664;28;19914;-76
2022/12/30 10:43:43;;;;;;;;;;;21.30;99.90;;;;;;4978729;28;19918;-71
2022/12/30 10:46:19;;;;;;;;;;;21.30;99.90;;;;;;5006819;28;19918;-70
2022/12/30 10:48:58;;;;;;;;;;;21.30;99.90;;;;;;5006927;28;19925;-69
2022/12/30 10:51:25;;;;;;;;;;;21.30;99.90;;;;;;5007468;28;19917;-72
2022/12/30 10:53:52;;;;;;;;;;;21.30;99.90;;;;;;5007044;28;20379;-78
2022/12/30 10:56:27;;;;;;;;;;;21.30;99.90;;;;;;5007470;28;20012;-73
2022/12/30 10:59:13;;;;;;;;;;;21.30;99.90;;;;;;5007178;28;19922;-72
2022/12/30 11:01:41;;;;;;;;;;;21.30;99.90;;;;;;5005897;28;19918;-69
2022/12/30 11:04:07;;;;;;;;;;;21.40;99.90;;;;;;5007101;28;19918;-67
2022/12/30 11:06:36;;;;;;;;;;;21.30;99.90;;;;;;5005886;28;19994;-75
2022/12/30 11:09:11;;;;;;;;;;;21.40;99.90;;;;;;5006146;28;20224;-77
2022/12/30 11:14:45;;;;;;;;;;;21.40;99.90;;;;;;5001464;28;20303;-69
2022/12/30 11:17:20;;;;;;;;;;;21.40;99.90;;;;;;5006440;28;19995;-68
2022/12/30 11:20:10;;;;;;;;;;;21.40;99.90;;;;;;5006719;28;19917;-67
2022/12/30 11:22:44;;;;;;;;;;;21.40;99.90;;;;;;4999030;28;20439;-70
2022/12/30 11:25:14;;;;;;;;;;;21.40;99.90;;;;;;5007393;28;19913;-70
2022/12/30 11:27:46;;;;;;;;;;;21.40;99.90;;;;;;5006728;28;19914;-71
2022/12/30 11:30:39;;;;;;;;;;;21.40;99.90;;;;;;5006308;28;19921;-70
2022/12/30 11:33:14;;;;;;;;;;;21.30;99.90;;;;;;5004833;28;19964;-69
2022/12/30 11:35:43;;;;;;;;;;;21.30;99.90;;;;;;5006706;28;19968;-74
2022/12/30 11:38:27;;;;;;;;;;;21.30;99.90;;;;;;5006610;28;19967;-68
2022/12/30 11:40:54;;;;;;;;;;;21.30;99.90;;;;;;5006560;28;19991;-74
2022/12/30 11:43:21;;;;;;;;;;;21.40;99.90;;;;;;5006931;28;19914;-69
2022/12/30 11:46:01;;;;;;;;;;;21.40;99.90;;;;;;5006597;28;20020;-76
2022/12/30 11:48:32;;;;;;;;;;;21.40;99.90;;;;;;5006753;28;20012;-71
2022/12/30 11:51:00;;;;;;;;;;;21.40;99.90;;;;;;5006226;28;19918;-67
2022/12/30 11:53:32;;;;;;;;;;;21.40;99.90;;;;;;5006066;28;19918;-71
2022/12/30 11:55:58;;;;;;;;;;;21.30;99.90;;;;;;5006724;28;19956;-70
2022/12/30 11:58:25;;;;;;;;;;;21.30;99.90;;;;;;5006519;28;19913;-76
2022/12/30 12:01:02;;;;;;;;;;;21.30;99.90;;;;;;5006061;28;19971;-69
2022/12/30 12:03:30;;;;;;;;;;;21.40;99.90;;;;;;5006048;28;19913;-68
2022/12/30 12:06:04;;;;;;;;;;;21.30;99.90;;;;;;5005980;28;20372;-71
2022/12/30 12:08:34;;;;;;;;;;;21.20;99.90;;;;;;5006445;28;20360;-70
2022/12/30 12:11:05;;;;;;;;;;;21.30;99.90;;;;;;5005031;28;19914;-70
2022/12/30 12:13:35;;;;;;;;;;;21.20;99.90;;;;;;5013441;28;20403;-70
2022/12/30 12:16:03;;;;;;;;;;;21.20;99.90;;;;;;5005254;28;19913;-70
2022/12/30 12:18:37;;;;;;;;;;;21.20;99.90;;;;;;5005795;28;20039;-66
2022/12/30 12:21:18;;;;;;;;;;;21.20;99.90;;;;;;5007598;28;20397;-79
2022/12/30 12:24:03;;;;;;;;;;;21.10;99.90;;;;;;5009096;28;20371;-67
2022/12/30 12:26:29;;;;;;;;;;;21.20;99.90;;;;;;5001392;28;19918;-72
2022/12/30 12:28:57;;;;;;;;;;;21.20;99.90;;;;;;5007892;28;20113;-69
2022/12/30 12:31:47;;;;;;;;;;;21.20;99.90;;;;;;5011132;28;19949;-70
2022/12/30 12:34:13;;;;;;;;;;;21.20;99.90;;;;;;5002626;28;20039;-68
2022/12/30 12:36:53;;;;;;;;;;;21.20;99.90;;;;;;5005585;28;20017;-72
2022/12/30 12:39:24;;;;;;;;;;;21.10;99.90;;;;;;5001147;28;19923;-71
2022/12/30 12:42:10;;;;;;;;;;;21.10;99.90;;;;;;5004964;28;19921;-71
2022/12/30 12:44:36;;;;;;;;;;;21.10;99.90;;;;;;5001391;28;20008;-69
2022/12/30 12:47:03;;;;;;;;;;;21.10;99.90;;;;;;4998883;28;19918;-69
2022/12/30 12:49:29;;;;;;;;;;;21.10;99.90;;;;;;5002357;28;20004;-69
2022/12/30 12:52:14;;;;;;;;;;;21.00;99.90;;;;;;5005805;28;20214;-72
2022/12/30 12:54:41;;;;;;;;;;;21.10;99.90;;;;;;5015655;28;19937;-72
2022/12/30 12:57:09;;;;;;;;;;;21.00;99.90;;;;;;5004467;28;19917;-71
2022/12/30 12:59:36;;;;;;;;;;;21.00;99.90;;;;;;5012720;28;19913;-71
2022/12/30 13:02:11;;;;;;;;;;;21.00;99.90;;;;;;5006051;28;19974;-71
2022/12/30 13:04:41;;;;;;;;;;;21.00;99.90;;;;;;5011846;28;20047;-71
2022/12/30 13:07:17;;;;;;;;;;;21.00;99.90;;;;;;5005037;28;19913;-68
2022/12/30 13:10:08;;;;;;;;;;;21.00;99.90;;;;;;5004801;28;20288;-66
2022/12/30 13:12:35;;;;;;;;;;;21.00;99.90;;;;;;5005538;28;19913;-67
2022/12/30 13:15:22;;;;;;;;;;;21.00;99.90;;;;;;5006751;28;19944;-71
2022/12/30 13:17:49;;;;;;;;;;;21.00;99.90;;;;;;5001187;28;19972;-67
2022/12/30 13:20:38;;;;;;;;;;;21.00;99.90;;;;;;5004217;28;20244;-69
2022/12/30 13:23:06;;;;;;;;;;;21.00;99.90;;;;;;5005108;28;20275;-66
2022/12/30 13:25:37;;;;;;;;;;;21.00;99.90;;;;;;5005231;28;20414;-72
2022/12/30 13:28:04;;;;;;;;;;;21.00;99.90;;;;;;5004951;28;20593;-67
2022/12/30 13:30:45;;;;;;;;;;;20.90;99.90;;;;;;5004019;28;20024;-68
2022/12/30 13:33:40;;;;;;;;;;;20.90;99.90;;;;;;5004803;28;19920;-75
2022/12/30 13:36:18;;;;;;;;;;;20.90;99.90;;;;;;4992041;28;19935;-72
2022/12/30 13:38:47;;;;;;;;;;;20.80;99.90;;;;;;5005319;28;19913;-66
2022/12/30 13:41:14;;;;;;;;;;;20.80;99.90;;;;;;5004821;28;20415;-73
2022/12/30 13:43:46;;;;;;;;;;;20.80;99.90;;;;;;5004678;28;19918;-69
2022/12/30 13:46:21;;;;;;;;;;;20.80;99.90;;;;;;4995958;28;20019;-69
2022/12/30 13:48:50;;;;;;;;;;;20.80;99.90;;;;;;5004343;28;19926;-69
2022/12/30 13:51:19;;;;;;;;;;;20.80;99.90;;;;;;5004300;28;19925;-71
2022/12/30 13:53:47;;;;;;;;;;;20.80;99.90;;;;;;5004501;28;19913;-71
2022/12/30 13:56:18;;;;;;;;;;;20.90;99.90;;;;;;5004939;28;19917;-71
2022/12/30 13:58:52;;;;;;;;;;;20.90;99.90;;;;;;5004634;28;20021;-67
2022/12/30 14:01:19;;;;;;;;;;;20.90;99.90;;;;;;5005110;28;19989;-74
2022/12/30 14:03:46;;;;;;;;;;;20.80;99.90;;;;;;5004795;28;20284;-72
2022/12/30 14:06:25;;;;;;;;;;;20.80;99.90;;;;;;5004375;28;20020;-69
2022/12/30 14:09:09;;;;;;;;;;;20.80;99.90;;;;;;5004058;28;20314;-75
2022/12/30 14:11:35;;;;;;;;;;;20.80;99.90;;;;;;5003118;28;19924;-73
2022/12/30 14:14:06;;;;;;;;;;;20.70;99.90;;;;;;5003780;28;19921;-76
2022/12/30 14:16:36;;;;;;;;;;;20.70;99.90;;;;;;5004036;28;19949;-68
2022/12/30 14:19:04;;;;;;;;;;;20.70;99.90;;;;;;5004152;28;19913;-68
2022/12/30 14:21:45;;;;;;;;;;;20.70;99.90;;;;;;5007339;28;19940;-70
2022/12/30 14:24:30;;;;;;;;;;;20.70;99.90;;;;;;5007334;28;19944;-75
2022/12/30 14:26:57;;;;;;;;;;;20.60;99.90;;;;;;5006109;28;20390;-73
2022/12/30 14:29:31;;;;;;;;;;;20.60;99.90;;;;;;5007430;28;20039;-71
2022/12/30 14:32:01;;;;;;;;;;;20.50;99.90;;;;;;5007834;28;19921;-74
2022/12/30 14:34:33;;;;;;;;;;;20.60;99.90;;;;;;5007409;28;20003;-74
2022/12/30 14:37:04;;;;;;;;;;;20.60;99.90;;;;;;5007064;28;19917;-71
2022/12/30 14:39:31;;;;;;;;;;;20.60;99.90;;;;;;5007178;28;19964;-72
2022/12/30 14:41:59;;;;;;;;;;;20.60;99.90;;;;;;5005770;28;19921;-68
2022/12/30 14:44:27;;;;;;;;;;;20.50;99.90;;;;;;5006325;28;19922;-69
2022/12/30 14:47:01;;;;;;;;;;;20.50;99.90;;;;;;5007341;28;19922;-72
2022/12/30 14:49:35;;;;;;;;;;;20.50;99.90;;;;;;5006688;28;19932;-70
2022/12/30 14:52:05;;;;;;;;;;;20.50;99.90;;;;;;5007848;28;20237;-70
2022/12/30 14:54:53;;;;;;;;;;;20.50;99.90;;;;;;5007204;28;20295;-68
2022/12/30 14:57:28;;;;;;;;;;;20.40;99.90;;;;;;5006307;28;19917;-72
2022/12/30 14:59:54;;;;;;;;;;;20.50;99.90;;;;;;5007004;28;19924;-71
2022/12/30 15:02:25;;;;;;;;;;;20.40;99.90;;;;;;5006400;28;19999;-72
2022/12/30 15:04:53;;;;;;;;;;;20.50;99.90;;;;;;5006081;28;19918;-68
2022/12/30 15:07:21;;;;;;;;;;;20.50;99.90;;;;;;5005935;28;19917;-67
2022/12/30 15:09:48;;;;;;;;;;;20.40;99.90;;;;;;5006436;28;19925;-70
2022/12/30 15:12:15;;;;;;;;;;;20.40;99.90;;;;;;5006524;28;20459;-68
2022/12/30 15:14:49;;;;;;;;;;;20.40;99.90;;;;;;5007043;28;20273;-70
2022/12/30 15:17:16;;;;;;;;;;;20.40;99.90;;;;;;5006344;28;19944;-70
2022/12/30 15:19:43;;;;;;;;;;;20.40;99.90;;;;;;5007106;28;19913;-71
2022/12/30 15:22:13;;;;;;;;;;;20.40;99.90;;;;;;5003409;28;19944;-71
2022/12/30 15:24:42;;;;;;;;;;;20.40;99.90;;;;;;4997290;28;19924;-70
2022/12/30 15:27:16;;;;;;;;;;;20.30;99.90;;;;;;5004389;28;20008;-71
2022/12/30 15:29:43;;;;;;;;;;;20.40;99.90;;;;;;5005952;28;19937;-68